sensor_id;sensor_type;location;lat;lon;timestamp;P1;durP1;ratioP1;P2;durP2;ratioP2
920;SDS011;447;51.332;6.778;2024-01-15T00:00:13;28.20;;;17.07;;
920;SDS011;447;51.332;6.778;2024-01-15T00:02:39;25.67;;;16.25;;
920;SDS011;447;51.332;6.778;2024-01-15T00:05:05;30.27;;;17.30;;
920;SDS011;447;51.332;6.778;2024-01-15T00:07:32;31.52;;;16.50;;
920;SDS011;447;51.332;6.778;2024-01-15T00:10:02;31.60;;;16.48;;
920;SDS011;447;51.332;6.778;2024-01-15T00:12:29;27.83;;;15.40;;
920;SDS011;447;51.332;6.778;2024-01-15T00:14:55;27.27;;;16.67;;
920;SDS011;447;51.332;6.778;2024-01-15T00:17:21;28.08;;;15.38;;
920;SDS011;447;51.332;6.778;2024-01-15T00:19:47;29.53;;;14.67;;
920;SDS011;447;51.332;6.778;2024-01-15T00:22:13;28.60;;;16.30;;
920;SDS011;447;51.332;6.778;2024-01-15T00:24:41;25.50;;;14.30;;
920;SDS011;447;51.332;6.778;2024-01-15T00:27:09;31.98;;;16.85;;
920;SDS011;447;51.332;6.778;2024-01-15T00:29:35;26.27;;;14.38;;
920;SDS011;447;51.332;6.778;2024-01-15T00:32:04;28.05;;;16.02;;
920;SDS011;447;51.332;6.778;2024-01-15T00:34:30;26.02;;;15.45;;
920;SDS011;447;51.332;6.778;2024-01-15T00:36:58;27.90;;;16.08;;
920;SDS011;447;51.332;6.778;2024-01-15T00:39:24;24.50;;;13.90;;
920;SDS011;447;51.332;6.778;2024-01-15T00:41:51;21.77;;;13.65;;
920;SDS011;447;51.332;6.778;2024-01-15T00:44:17;30.75;;;15.43;;
920;SDS011;447;51.332;6.778;2024-01-15T00:46:44;35.13;;;15.70;;
920;SDS011;447;51.332;6.778;2024-01-15T00:49:11;22.10;;;13.23;;
920;SDS011;447;51.332;6.778;2024-01-15T00:51:38;26.08;;;15.32;;
920;SDS011;447;51.332;6.778;2024-01-15T00:54:08;26.50;;;15.25;;
920;SDS011;447;51.332;6.778;2024-01-15T00:56:34;27.00;;;14.95;;
920;SDS011;447;51.332;6.778;2024-01-15T00:59:02;26.58;;;14.55;;
920;SDS011;447;51.332;6.778;2024-01-15T01:01:29;22.67;;;14.13;;
920;SDS011;447;51.332;6.778;2024-01-15T01:03:55;24.45;;;14.52;;
920;SDS011;447;51.332;6.778;2024-01-15T01:06:21;23.05;;;13.52;;
920;SDS011;447;51.332;6.778;2024-01-15T01:08:48;24.08;;;14.80;;
920;SDS011;447;51.332;6.778;2024-01-15T01:11:15;23.92;;;15.45;;
920;SDS011;447;51.332;6.778;2024-01-15T01:13:41;26.60;;;14.15;;
920;SDS011;447;51.332;6.778;2024-01-15T01:16:12;23.67;;;13.13;;
920;SDS011;447;51.332;6.778;2024-01-15T01:18:41;25.10;;;16.23;;
920;SDS011;447;51.332;6.778;2024-01-15T01:21:07;22.02;;;13.77;;
920;SDS011;447;51.332;6.778;2024-01-15T01:23:33;24.50;;;15.07;;
920;SDS011;447;51.332;6.778;2024-01-15T01:25:59;23.87;;;13.37;;
920;SDS011;447;51.332;6.778;2024-01-15T01:28:25;21.48;;;14.07;;
920;SDS011;447;51.332;6.778;2024-01-15T01:30:51;22.05;;;13.95;;
920;SDS011;447;51.332;6.778;2024-01-15T01:33:19;20.73;;;13.20;;
920;SDS011;447;51.332;6.778;2024-01-15T01:35:45;24.40;;;14.83;;
920;SDS011;447;51.332;6.778;2024-01-15T01:38:12;22.92;;;14.85;;
920;SDS011;447;51.332;6.778;2024-01-15T01:40:43;22.73;;;14.18;;
920;SDS011;447;51.332;6.778;2024-01-15T01:43:09;23.80;;;14.35;;
920;SDS011;447;51.332;6.778;2024-01-15T01:45:36;27.27;;;14.15;;
920;SDS011;447;51.332;6.778;2024-01-15T01:48:04;22.38;;;14.40;;
920;SDS011;447;51.332;6.778;2024-01-15T01:50:33;20.85;;;12.73;;
920;SDS011;447;51.332;6.778;2024-01-15T01:53:01;24.42;;;14.35;;
920;SDS011;447;51.332;6.778;2024-01-15T01:55:29;23.33;;;13.35;;
920;SDS011;447;51.332;6.778;2024-01-15T01:57:58;24.70;;;13.40;;
920;SDS011;447;51.332;6.778;2024-01-15T02:00:28;25.83;;;14.80;;
920;SDS011;447;51.332;6.778;2024-01-15T02:02:55;26.85;;;13.77;;
920;SDS011;447;51.332;6.778;2024-01-15T02:05:22;22.83;;;13.60;;
920;SDS011;447;51.332;6.778;2024-01-15T02:07:50;26.88;;;14.13;;
920;SDS011;447;51.332;6.778;2024-01-15T02:10:16;19.00;;;12.32;;
920;SDS011;447;51.332;6.778;2024-01-15T02:12:43;22.02;;;12.82;;
920;SDS011;447;51.332;6.778;2024-01-15T02:15:09;22.77;;;13.60;;
920;SDS011;447;51.332;6.778;2024-01-15T02:17:41;19.83;;;13.00;;
920;SDS011;447;51.332;6.778;2024-01-15T02:20:21;23.27;;;13.60;;
920;SDS011;447;51.332;6.778;2024-01-15T02:22:47;22.03;;;13.10;;
920;SDS011;447;51.332;6.778;2024-01-15T02:25:13;21.73;;;14.10;;
920;SDS011;447;51.332;6.778;2024-01-15T02:27:39;21.43;;;13.30;;
920;SDS011;447;51.332;6.778;2024-01-15T02:30:31;24.85;;;14.70;;
920;SDS011;447;51.332;6.778;2024-01-15T02:32:58;23.52;;;12.80;;
920;SDS011;447;51.332;6.778;2024-01-15T02:35:24;19.15;;;12.63;;
920;SDS011;447;51.332;6.778;2024-01-15T02:37:50;20.60;;;13.53;;
920;SDS011;447;51.332;6.778;2024-01-15T02:40:16;21.03;;;12.60;;
920;SDS011;447;51.332;6.778;2024-01-15T02:42:42;18.50;;;11.20;;
920;SDS011;447;51.332;6.778;2024-01-15T02:45:08;19.60;;;12.00;;
920;SDS011;447;51.332;6.778;2024-01-15T02:47:36;18.23;;;11.77;;
920;SDS011;447;51.332;6.778;2024-01-15T02:50:02;17.85;;;10.55;;
920;SDS011;447;51.332;6.778;2024-01-15T02:52:29;19.25;;;10.90;;
920;SDS011;447;51.332;6.778;2024-01-15T02:54:55;19.53;;;11.23;;
920;SDS011;447;51.332;6.778;2024-01-15T02:57:21;16.10;;;10.47;;
920;SDS011;447;51.332;6.778;2024-01-15T02:59:49;14.43;;;9.85;;
920;SDS011;447;51.332;6.778;2024-01-15T03:02:17;15.82;;;10.52;;
920;SDS011;447;51.332;6.778;2024-01-15T03:04:44;15.02;;;10.27;;
920;SDS011;447;51.332;6.778;2024-01-15T03:07:10;18.27;;;10.60;;
920;SDS011;447;51.332;6.778;2024-01-15T03:09:36;16.90;;;10.40;;
920;SDS011;447;51.332;6.778;2024-01-15T03:12:02;13.23;;;9.60;;
920;SDS011;447;51.332;6.778;2024-01-15T03:14:28;14.23;;;9.43;;
920;SDS011;447;51.332;6.778;2024-01-15T03:16:54;11.90;;;8.98;;
920;SDS011;447;51.332;6.778;2024-01-15T03:19:23;15.55;;;10.02;;
920;SDS011;447;51.332;6.778;2024-01-15T03:21:48;14.82;;;9.40;;
920;SDS011;447;51.332;6.778;2024-01-15T03:24:17;13.97;;;9.90;;
920;SDS011;447;51.332;6.778;2024-01-15T03:26:45;13.55;;;9.45;;
920;SDS011;447;51.332;6.778;2024-01-15T03:29:11;13.60;;;8.80;;
920;SDS011;447;51.332;6.778;2024-01-15T03:31:38;15.73;;;9.77;;
920;SDS011;447;51.332;6.778;2024-01-15T03:34:04;12.43;;;8.57;;
920;SDS011;447;51.332;6.778;2024-01-15T03:36:32;15.90;;;10.37;;
920;SDS011;447;51.332;6.778;2024-01-15T03:39:00;15.50;;;9.65;;
920;SDS011;447;51.332;6.778;2024-01-15T03:41:26;14.60;;;9.35;;
920;SDS011;447;51.332;6.778;2024-01-15T03:43:54;17.77;;;10.50;;
920;SDS011;447;51.332;6.778;2024-01-15T03:46:23;13.75;;;9.70;;
920;SDS011;447;51.332;6.778;2024-01-15T03:48:49;14.15;;;10.05;;
920;SDS011;447;51.332;6.778;2024-01-15T03:51:16;12.13;;;9.50;;
920;SDS011;447;51.332;6.778;2024-01-15T03:53:43;14.80;;;10.13;;
920;SDS011;447;51.332;6.778;2024-01-15T03:56:11;13.68;;;9.40;;
920;SDS011;447;51.332;6.778;2024-01-15T03:58:38;15.87;;;9.13;;
920;SDS011;447;51.332;6.778;2024-01-15T04:01:07;13.32;;;9.88;;
920;SDS011;447;51.332;6.778;2024-01-15T04:03:34;12.80;;;9.38;;
920;SDS011;447;51.332;6.778;2024-01-15T04:06:00;13.87;;;10.23;;
920;SDS011;447;51.332;6.778;2024-01-15T04:08:26;12.70;;;9.53;;
920;SDS011;447;51.332;6.778;2024-01-15T04:10:52;13.73;;;9.50;;
920;SDS011;447;51.332;6.778;2024-01-15T04:13:18;13.53;;;10.13;;
920;SDS011;447;51.332;6.778;2024-01-15T04:15:47;15.13;;;10.18;;
920;SDS011;447;51.332;6.778;2024-01-15T04:18:13;12.57;;;9.77;;
920;SDS011;447;51.332;6.778;2024-01-15T04:20:41;15.50;;;9.00;;
920;SDS011;447;51.332;6.778;2024-01-15T04:23:13;10.85;;;8.77;;
920;SDS011;447;51.332;6.778;2024-01-15T04:25:41;15.50;;;10.20;;
920;SDS011;447;51.332;6.778;2024-01-15T04:28:09;15.40;;;10.20;;
920;SDS011;447;51.332;6.778;2024-01-15T04:30:37;14.15;;;10.30;;
920;SDS011;447;51.332;6.778;2024-01-15T04:33:03;13.10;;;9.48;;
920;SDS011;447;51.332;6.778;2024-01-15T04:35:30;11.35;;;9.50;;
920;SDS011;447;51.332;6.778;2024-01-15T04:37:59;13.25;;;9.25;;
920;SDS011;447;51.332;6.778;2024-01-15T04:40:25;11.20;;;8.43;;
920;SDS011;447;51.332;6.778;2024-01-15T04:42:53;12.90;;;8.73;;
920;SDS011;447;51.332;6.778;2024-01-15T04:45:24;11.05;;;8.25;;
920;SDS011;447;51.332;6.778;2024-01-15T04:47:54;14.30;;;8.45;;
920;SDS011;447;51.332;6.778;2024-01-15T04:50:23;11.30;;;8.98;;
920;SDS011;447;51.332;6.778;2024-01-15T04:52:49;11.27;;;8.90;;
920;SDS011;447;51.332;6.778;2024-01-15T04:55:17;13.15;;;8.38;;
920;SDS011;447;51.332;6.778;2024-01-15T04:57:44;13.85;;;8.02;;
920;SDS011;447;51.332;6.778;2024-01-15T05:00:12;10.85;;;8.10;;
920;SDS011;447;51.332;6.778;2024-01-15T05:02:41;11.48;;;8.75;;
920;SDS011;447;51.332;6.778;2024-01-15T05:05:07;10.55;;;8.25;;
920;SDS011;447;51.332;6.778;2024-01-15T05:07:35;10.98;;;8.25;;
920;SDS011;447;51.332;6.778;2024-01-15T05:10:01;9.88;;;8.02;;
920;SDS011;447;51.332;6.778;2024-01-15T05:12:29;11.52;;;8.63;;
920;SDS011;447;51.332;6.778;2024-01-15T05:14:57;12.02;;;9.07;;
920;SDS011;447;51.332;6.778;2024-01-15T05:17:25;11.55;;;8.15;;
920;SDS011;447;51.332;6.778;2024-01-15T05:19:53;27.05;;;9.07;;
920;SDS011;447;51.332;6.778;2024-01-15T05:22:19;10.48;;;7.95;;
920;SDS011;447;51.332;6.778;2024-01-15T05:24:48;11.15;;;8.70;;
920;SDS011;447;51.332;6.778;2024-01-15T05:27:17;11.57;;;7.60;;
920;SDS011;447;51.332;6.778;2024-01-15T05:29:43;10.40;;;8.07;;
920;SDS011;447;51.332;6.778;2024-01-15T05:32:10;11.35;;;8.15;;
920;SDS011;447;51.332;6.778;2024-01-15T05:34:36;12.18;;;8.13;;
920;SDS011;447;51.332;6.778;2024-01-15T05:37:02;12.13;;;7.57;;
920;SDS011;447;51.332;6.778;2024-01-15T05:39:28;11.30;;;7.40;;
920;SDS011;447;51.332;6.778;2024-01-15T05:41:57;10.05;;;7.68;;
920;SDS011;447;51.332;6.778;2024-01-15T05:44:26;10.77;;;7.68;;
920;SDS011;447;51.332;6.778;2024-01-15T05:46:52;10.20;;;7.77;;
920;SDS011;447;51.332;6.778;2024-01-15T05:49:19;8.82;;;7.50;;
920;SDS011;447;51.332;6.778;2024-01-15T05:51:45;10.52;;;7.00;;
920;SDS011;447;51.332;6.778;2024-01-15T05:54:13;13.10;;;7.53;;
920;SDS011;447;51.332;6.778;2024-01-15T05:56:39;12.48;;;6.63;;
920;SDS011;447;51.332;6.778;2024-01-15T05:59:07;9.77;;;6.88;;
920;SDS011;447;51.332;6.778;2024-01-15T06:01:36;8.88;;;6.60;;
920;SDS011;447;51.332;6.778;2024-01-15T06:04:02;10.73;;;7.78;;
920;SDS011;447;51.332;6.778;2024-01-15T06:06:28;11.00;;;7.10;;
920;SDS011;447;51.332;6.778;2024-01-15T06:08:54;9.32;;;6.50;;
920;SDS011;447;51.332;6.778;2024-01-15T06:11:20;8.00;;;6.50;;
920;SDS011;447;51.332;6.778;2024-01-15T06:13:46;9.53;;;6.63;;
920;SDS011;447;51.332;6.778;2024-01-15T06:16:21;10.20;;;7.50;;
920;SDS011;447;51.332;6.778;2024-01-15T06:18:48;9.63;;;6.65;;
920;SDS011;447;51.332;6.778;2024-01-15T06:21:16;9.60;;;7.25;;
920;SDS011;447;51.332;6.778;2024-01-15T06:23:43;12.75;;;7.18;;
920;SDS011;447;51.332;6.778;2024-01-15T06:26:11;8.15;;;6.75;;
920;SDS011;447;51.332;6.778;2024-01-15T06:28:38;8.43;;;6.60;;
920;SDS011;447;51.332;6.778;2024-01-15T06:31:06;7.57;;;6.38;;
920;SDS011;447;51.332;6.778;2024-01-15T06:33:32;8.75;;;6.38;;
920;SDS011;447;51.332;6.778;2024-01-15T06:35:58;7.40;;;6.27;;
920;SDS011;447;51.332;6.778;2024-01-15T06:38:24;12.38;;;6.38;;
920;SDS011;447;51.332;6.778;2024-01-15T06:40:50;7.95;;;5.45;;
920;SDS011;447;51.332;6.778;2024-01-15T06:43:17;8.65;;;5.90;;
920;SDS011;447;51.332;6.778;2024-01-15T06:45:45;10.27;;;5.50;;
920;SDS011;447;51.332;6.778;2024-01-15T06:48:11;7.77;;;5.97;;
920;SDS011;447;51.332;6.778;2024-01-15T06:50:40;7.95;;;5.88;;
920;SDS011;447;51.332;6.778;2024-01-15T06:53:06;7.60;;;5.50;;
920;SDS011;447;51.332;6.778;2024-01-15T06:55:32;7.65;;;5.15;;
920;SDS011;447;51.332;6.778;2024-01-15T06:57:58;7.22;;;5.68;;
920;SDS011;447;51.332;6.778;2024-01-15T07:00:27;6.85;;;5.20;;
920;SDS011;447;51.332;6.778;2024-01-15T07:02:55;5.65;;;4.95;;
920;SDS011;447;51.332;6.778;2024-01-15T07:05:21;7.53;;;5.22;;
920;SDS011;447;51.332;6.778;2024-01-15T07:07:51;6.07;;;4.30;;
920;SDS011;447;51.332;6.778;2024-01-15T07:10:18;5.72;;;4.72;;
920;SDS011;447;51.332;6.778;2024-01-15T07:12:44;6.85;;;4.80;;
920;SDS011;447;51.332;6.778;2024-01-15T07:15:12;7.63;;;5.50;;
920;SDS011;447;51.332;6.778;2024-01-15T07:17:38;5.93;;;4.63;;
920;SDS011;447;51.332;6.778;2024-01-15T07:20:08;6.55;;;4.50;;
920;SDS011;447;51.332;6.778;2024-01-15T07:22:37;6.25;;;4.72;;
920;SDS011;447;51.332;6.778;2024-01-15T07:25:04;6.70;;;4.82;;
920;SDS011;447;51.332;6.778;2024-01-15T07:27:30;5.68;;;5.00;;
920;SDS011;447;51.332;6.778;2024-01-15T07:30:00;5.90;;;5.25;;
920;SDS011;447;51.332;6.778;2024-01-15T07:32:27;6.32;;;5.25;;
920;SDS011;447;51.332;6.778;2024-01-15T07:34:53;6.15;;;5.55;;
920;SDS011;447;51.332;6.778;2024-01-15T07:37:25;6.67;;;6.00;;
920;SDS011;447;51.332;6.778;2024-01-15T07:39:51;8.52;;;5.53;;
920;SDS011;447;51.332;6.778;2024-01-15T07:42:17;9.30;;;5.97;;
920;SDS011;447;51.332;6.778;2024-01-15T07:44:43;7.27;;;6.10;;
920;SDS011;447;51.332;6.778;2024-01-15T07:47:16;9.35;;;7.35;;
920;SDS011;447;51.332;6.778;2024-01-15T07:49:44;8.10;;;6.65;;
920;SDS011;447;51.332;6.778;2024-01-15T07:52:14;8.63;;;6.93;;
920;SDS011;447;51.332;6.778;2024-01-15T07:54:43;11.55;;;7.35;;
920;SDS011;447;51.332;6.778;2024-01-15T07:57:11;11.80;;;7.97;;
920;SDS011;447;51.332;6.778;2024-01-15T07:59:39;8.68;;;6.53;;
920;SDS011;447;51.332;6.778;2024-01-15T08:02:05;11.73;;;7.15;;
920;SDS011;447;51.332;6.778;2024-01-15T08:04:34;7.50;;;6.40;;
920;SDS011;447;51.332;6.778;2024-01-15T08:07:04;9.07;;;7.03;;
920;SDS011;447;51.332;6.778;2024-01-15T08:09:34;9.35;;;7.13;;
920;SDS011;447;51.332;6.778;2024-01-15T08:12:01;10.15;;;7.00;;
920;SDS011;447;51.332;6.778;2024-01-15T08:14:29;8.90;;;6.85;;
920;SDS011;447;51.332;6.778;2024-01-15T08:16:55;8.13;;;7.13;;
920;SDS011;447;51.332;6.778;2024-01-15T08:19:24;9.00;;;6.85;;
920;SDS011;447;51.332;6.778;2024-01-15T08:21:55;9.02;;;6.35;;
920;SDS011;447;51.332;6.778;2024-01-15T08:24:21;13.93;;;7.13;;
920;SDS011;447;51.332;6.778;2024-01-15T08:26:47;9.27;;;6.90;;
920;SDS011;447;51.332;6.778;2024-01-15T08:29:15;8.95;;;6.75;;
920;SDS011;447;51.332;6.778;2024-01-15T08:31:41;9.80;;;7.03;;
920;SDS011;447;51.332;6.778;2024-01-15T08:34:07;8.70;;;6.27;;
920;SDS011;447;51.332;6.778;2024-01-15T08:36:33;9.20;;;6.90;;
920;SDS011;447;51.332;6.778;2024-01-15T08:39:01;7.38;;;6.28;;
920;SDS011;447;51.332;6.778;2024-01-15T08:41:31;7.82;;;6.60;;
920;SDS011;447;51.332;6.778;2024-01-15T08:44:10;7.38;;;6.38;;
920;SDS011;447;51.332;6.778;2024-01-15T08:46:39;10.65;;;6.93;;
920;SDS011;447;51.332;6.778;2024-01-15T08:49:04;8.00;;;5.95;;
920;SDS011;447;51.332;6.778;2024-01-15T08:51:31;8.50;;;5.63;;
920;SDS011;447;51.332;6.778;2024-01-15T08:53:57;7.20;;;6.25;;
920;SDS011;447;51.332;6.778;2024-01-15T08:56:23;7.38;;;6.57;;
920;SDS011;447;51.332;6.778;2024-01-15T08:58:49;6.77;;;5.43;;
920;SDS011;447;51.332;6.778;2024-01-15T09:01:15;9.32;;;6.15;;
920;SDS011;447;51.332;6.778;2024-01-15T09:03:42;6.18;;;5.63;;
920;SDS011;447;51.332;6.778;2024-01-15T09:06:09;6.35;;;5.55;;
920;SDS011;447;51.332;6.778;2024-01-15T09:08:36;6.38;;;5.60;;
920;SDS011;447;51.332;6.778;2024-01-15T09:11:02;6.55;;;5.93;;
920;SDS011;447;51.332;6.778;2024-01-15T09:13:30;6.28;;;5.50;;
920;SDS011;447;51.332;6.778;2024-01-15T09:16:00;6.78;;;5.20;;
920;SDS011;447;51.332;6.778;2024-01-15T09:18:27;5.38;;;4.88;;
920;SDS011;447;51.332;6.778;2024-01-15T09:20:56;7.50;;;5.13;;
920;SDS011;447;51.332;6.778;2024-01-15T09:23:24;5.50;;;4.47;;
920;SDS011;447;51.332;6.778;2024-01-15T09:25:51;5.10;;;4.50;;
920;SDS011;447;51.332;6.778;2024-01-15T09:28:19;6.72;;;5.07;;
920;SDS011;447;51.332;6.778;2024-01-15T09:30:45;4.93;;;4.53;;
920;SDS011;447;51.332;6.778;2024-01-15T09:33:14;4.55;;;4.15;;
920;SDS011;447;51.332;6.778;2024-01-15T09:35:41;5.43;;;4.93;;
920;SDS011;447;51.332;6.778;2024-01-15T09:38:09;5.40;;;4.20;;
920;SDS011;447;51.332;6.778;2024-01-15T09:40:35;5.10;;;4.60;;
920;SDS011;447;51.332;6.778;2024-01-15T09:43:04;4.90;;;4.50;;
920;SDS011;447;51.332;6.778;2024-01-15T09:45:30;4.30;;;3.90;;
920;SDS011;447;51.332;6.778;2024-01-15T09:47:59;5.53;;;4.45;;
920;SDS011;447;51.332;6.778;2024-01-15T09:50:25;4.20;;;3.80;;
920;SDS011;447;51.332;6.778;2024-01-15T09:52:56;4.85;;;3.95;;
920;SDS011;447;51.332;6.778;2024-01-15T09:55:23;4.60;;;4.20;;
920;SDS011;447;51.332;6.778;2024-01-15T09:57:49;4.90;;;4.40;;
920;SDS011;447;51.332;6.778;2024-01-15T10:00:19;5.63;;;4.47;;
920;SDS011;447;51.332;6.778;2024-01-15T10:02:46;4.70;;;4.20;;
920;SDS011;447;51.332;6.778;2024-01-15T10:05:15;4.93;;;4.20;;
920;SDS011;447;51.332;6.778;2024-01-15T10:07:46;4.88;;;4.28;;
920;SDS011;447;51.332;6.778;2024-01-15T10:10:17;4.30;;;3.55;;
920;SDS011;447;51.332;6.778;2024-01-15T10:12:43;4.13;;;3.72;;
920;SDS011;447;51.332;6.778;2024-01-15T10:15:10;3.97;;;3.67;;
920;SDS011;447;51.332;6.778;2024-01-15T10:17:39;4.47;;;3.90;;
920;SDS011;447;51.332;6.778;2024-01-15T10:20:11;5.13;;;3.35;;
920;SDS011;447;51.332;6.778;2024-01-15T10:22:41;4.28;;;3.97;;
920;SDS011;447;51.332;6.778;2024-01-15T10:25:12;3.72;;;3.42;;
920;SDS011;447;51.332;6.778;2024-01-15T10:27:41;4.25;;;3.60;;
920;SDS011;447;51.332;6.778;2024-01-15T10:30:10;4.30;;;3.90;;
920;SDS011;447;51.332;6.778;2024-01-15T10:32:41;4.07;;;3.67;;
920;SDS011;447;51.332;6.778;2024-01-15T10:35:30;5.28;;;4.88;;
920;SDS011;447;51.332;6.778;2024-01-15T10:37:59;3.85;;;3.55;;
920;SDS011;447;51.332;6.778;2024-01-15T10:40:25;4.30;;;3.90;;
920;SDS011;447;51.332;6.778;2024-01-15T10:42:56;3.83;;;3.10;;
920;SDS011;447;51.332;6.778;2024-01-15T10:45:23;3.33;;;3.03;;
920;SDS011;447;51.332;6.778;2024-01-15T10:47:51;3.50;;;3.20;;
920;SDS011;447;51.332;6.778;2024-01-15T10:50:24;3.55;;;3.10;;
920;SDS011;447;51.332;6.778;2024-01-15T10:52:50;6.82;;;3.65;;
920;SDS011;447;51.332;6.778;2024-01-15T10:55:17;4.07;;;3.67;;
920;SDS011;447;51.332;6.778;2024-01-15T10:57:43;3.90;;;3.50;;
920;SDS011;447;51.332;6.778;2024-01-15T11:00:10;3.78;;;3.47;;
920;SDS011;447;51.332;6.778;2024-01-15T11:02:40;4.80;;;4.40;;
920;SDS011;447;51.332;6.778;2024-01-15T11:05:07;4.10;;;3.80;;
920;SDS011;447;51.332;6.778;2024-01-15T11:07:39;3.75;;;3.40;;
920;SDS011;447;51.332;6.778;2024-01-15T11:10:07;4.20;;;3.80;;
920;SDS011;447;51.332;6.778;2024-01-15T11:12:35;3.33;;;3.03;;
920;SDS011;447;51.332;6.778;2024-01-15T11:15:02;5.50;;;3.50;;
920;SDS011;447;51.332;6.778;2024-01-15T11:20:26;3.50;;;3.20;;
920;SDS011;447;51.332;6.778;2024-01-15T11:22:53;3.60;;;3.30;;
920;SDS011;447;51.332;6.778;2024-01-15T11:25:19;3.92;;;3.60;;
920;SDS011;447;51.332;6.778;2024-01-15T11:27:49;3.50;;;3.17;;
920;SDS011;447;51.332;6.778;2024-01-15T11:30:24;3.58;;;3.28;;
920;SDS011;447;51.332;6.778;2024-01-15T11:32:53;3.08;;;2.88;;
920;SDS011;447;51.332;6.778;2024-01-15T11:35:21;3.35;;;3.05;;
920;SDS011;447;51.332;6.778;2024-01-15T11:40:23;3.75;;;3.45;;
920;SDS011;447;51.332;6.778;2024-01-15T11:43:03;3.92;;;2.80;;
920;SDS011;447;51.332;6.778;2024-01-15T11:45:31;3.20;;;2.63;;
920;SDS011;447;51.332;6.778;2024-01-15T11:50:42;5.60;;;3.00;;
920;SDS011;447;51.332;6.778;2024-01-15T11:53:54;3.75;;;2.80;;
920;SDS011;447;51.332;6.778;2024-01-15T11:56:01;7.10;;;2.78;;
920;SDS011;447;51.332;6.778;2024-01-15T11:58:28;5.28;;;2.70;;
920;SDS011;447;51.332;6.778;2024-01-15T12:01:01;3.08;;;2.83;;
920;SDS011;447;51.332;6.778;2024-01-15T12:03:28;4.38;;;2.72;;
920;SDS011;447;51.332;6.778;2024-01-15T12:06:01;6.13;;;2.70;;
920;SDS011;447;51.332;6.778;2024-01-15T12:08:27;2.80;;;2.60;;
920;SDS011;447;51.332;6.778;2024-01-15T12:10:58;5.00;;;2.80;;
920;SDS011;447;51.332;6.778;2024-01-15T12:13:26;2.80;;;2.45;;
920;SDS011;447;51.332;6.778;2024-01-15T12:15:56;3.67;;;2.30;;
920;SDS011;447;51.332;6.778;2024-01-15T12:18:22;4.65;;;2.50;;
920;SDS011;447;51.332;6.778;2024-01-15T12:20:53;3.30;;;2.67;;
920;SDS011;447;51.332;6.778;2024-01-15T12:23:20;2.50;;;2.30;;
920;SDS011;447;51.332;6.778;2024-01-15T12:25:46;4.80;;;2.90;;
920;SDS011;447;51.332;6.778;2024-01-15T12:28:13;3.00;;;2.80;;
920;SDS011;447;51.332;6.778;2024-01-15T12:30:40;2.20;;;2.10;;
920;SDS011;447;51.332;6.778;2024-01-15T12:33:06;2.70;;;2.50;;
920;SDS011;447;51.332;6.778;2024-01-15T12:35:33;3.85;;;2.50;;
920;SDS011;447;51.332;6.778;2024-01-15T12:38:02;4.65;;;2.97;;
920;SDS011;447;51.332;6.778;2024-01-15T12:40:29;3.38;;;2.70;;
920;SDS011;447;51.332;6.778;2024-01-15T12:42:59;2.92;;;2.60;;
920;SDS011;447;51.332;6.778;2024-01-15T12:45:26;3.10;;;2.80;;
920;SDS011;447;51.332;6.778;2024-01-15T12:47:53;4.80;;;3.30;;
920;SDS011;447;51.332;6.778;2024-01-15T12:50:19;6.53;;;2.80;;
920;SDS011;447;51.332;6.778;2024-01-15T12:52:51;3.22;;;3.00;;
920;SDS011;447;51.332;6.778;2024-01-15T12:55:18;5.53;;;3.50;;
920;SDS011;447;51.332;6.778;2024-01-15T12:57:49;3.67;;;3.20;;
920;SDS011;447;51.332;6.778;2024-01-15T13:00:21;3.25;;;2.80;;
920;SDS011;447;51.332;6.778;2024-01-15T13:02:48;6.78;;;3.42;;
920;SDS011;447;51.332;6.778;2024-01-15T13:05:19;3.40;;;3.10;;
920;SDS011;447;51.332;6.778;2024-01-15T13:07:49;3.83;;;3.30;;
920;SDS011;447;51.332;6.778;2024-01-15T13:10:15;5.00;;;3.10;;
920;SDS011;447;51.332;6.778;2024-01-15T13:12:41;3.25;;;2.95;;
920;SDS011;447;51.332;6.778;2024-01-15T13:15:07;6.50;;;4.03;;
920;SDS011;447;51.332;6.778;2024-01-15T13:17:39;5.80;;;4.38;;
920;SDS011;447;51.332;6.778;2024-01-15T13:20:06;3.53;;;3.20;;
920;SDS011;447;51.332;6.778;2024-01-15T13:22:33;4.45;;;3.60;;
920;SDS011;447;51.332;6.778;2024-01-15T13:25:00;4.75;;;3.53;;
920;SDS011;447;51.332;6.778;2024-01-15T13:27:30;5.65;;;3.55;;
920;SDS011;447;51.332;6.778;2024-01-15T13:29:57;3.65;;;3.33;;
920;SDS011;447;51.332;6.778;2024-01-15T13:32:28;5.50;;;3.95;;
920;SDS011;447;51.332;6.778;2024-01-15T13:34:59;7.40;;;3.50;;
920;SDS011;447;51.332;6.778;2024-01-15T13:37:25;4.72;;;3.67;;
920;SDS011;447;51.332;6.778;2024-01-15T13:39:52;4.72;;;3.58;;
920;SDS011;447;51.332;6.778;2024-01-15T13:42:18;6.28;;;3.65;;
920;SDS011;447;51.332;6.778;2024-01-15T13:44:47;4.72;;;3.25;;
920;SDS011;447;51.332;6.778;2024-01-15T13:47:13;4.20;;;3.90;;
920;SDS011;447;51.332;6.778;2024-01-15T13:49:39;3.60;;;3.28;;
920;SDS011;447;51.332;6.778;2024-01-15T13:52:06;3.63;;;2.97;;
920;SDS011;447;51.332;6.778;2024-01-15T13:54:35;7.45;;;3.83;;
920;SDS011;447;51.332;6.778;2024-01-15T13:57:03;5.57;;;4.05;;
920;SDS011;447;51.332;6.778;2024-01-15T13:59:31;5.17;;;4.00;;
920;SDS011;447;51.332;6.778;2024-01-15T14:02:00;4.03;;;3.13;;
920;SDS011;447;51.332;6.778;2024-01-15T14:04:29;3.60;;;3.30;;
920;SDS011;447;51.332;6.778;2024-01-15T14:06:58;6.03;;;2.97;;
920;SDS011;447;51.332;6.778;2024-01-15T14:09:24;4.33;;;3.20;;
920;SDS011;447;51.332;6.778;2024-01-15T14:11:50;4.78;;;3.47;;
920;SDS011;447;51.332;6.778;2024-01-15T14:14:19;3.10;;;2.80;;
920;SDS011;447;51.332;6.778;2024-01-15T14:16:46;3.30;;;3.00;;
920;SDS011;447;51.332;6.778;2024-01-15T14:19:12;3.95;;;2.40;;
920;SDS011;447;51.332;6.778;2024-01-15T14:21:40;3.83;;;3.30;;
920;SDS011;447;51.332;6.778;2024-01-15T14:24:06;6.05;;;3.00;;
920;SDS011;447;51.332;6.778;2024-01-15T14:26:38;3.10;;;2.70;;
920;SDS011;447;51.332;6.778;2024-01-15T14:29:07;3.35;;;3.05;;
920;SDS011;447;51.332;6.778;2024-01-15T14:31:33;3.13;;;2.50;;
920;SDS011;447;51.332;6.778;2024-01-15T14:34:02;6.85;;;2.70;;
920;SDS011;447;51.332;6.778;2024-01-15T14:36:28;4.13;;;2.72;;
920;SDS011;447;51.332;6.778;2024-01-15T14:38:55;2.72;;;2.40;;
920;SDS011;447;51.332;6.778;2024-01-15T14:41:23;4.78;;;2.30;;
920;SDS011;447;51.332;6.778;2024-01-15T14:43:52;5.00;;;2.20;;
920;SDS011;447;51.332;6.778;2024-01-15T14:46:18;2.35;;;2.15;;
920;SDS011;447;51.332;6.778;2024-01-15T14:48:45;3.50;;;2.90;;
920;SDS011;447;51.332;6.778;2024-01-15T14:51:14;2.97;;;2.30;;
920;SDS011;447;51.332;6.778;2024-01-15T14:53:40;2.50;;;2.30;;
920;SDS011;447;51.332;6.778;2024-01-15T14:56:08;2.90;;;2.28;;
920;SDS011;447;51.332;6.778;2024-01-15T14:58:37;2.50;;;2.30;;
920;SDS011;447;51.332;6.778;2024-01-15T15:01:06;6.20;;;2.67;;
920;SDS011;447;51.332;6.778;2024-01-15T15:03:32;2.80;;;2.55;;
920;SDS011;447;51.332;6.778;2024-01-15T15:05:58;4.55;;;2.47;;
920;SDS011;447;51.332;6.778;2024-01-15T15:08:32;2.65;;;2.45;;
920;SDS011;447;51.332;6.778;2024-01-15T15:11:04;3.80;;;2.50;;
920;SDS011;447;51.332;6.778;2024-01-15T15:13:33;2.40;;;2.20;;
920;SDS011;447;51.332;6.778;2024-01-15T15:16:00;3.80;;;2.40;;
920;SDS011;447;51.332;6.778;2024-01-15T15:18:26;3.13;;;2.88;;
920;SDS011;447;51.332;6.778;2024-01-15T15:20:55;2.60;;;2.40;;
920;SDS011;447;51.332;6.778;2024-01-15T15:23:21;4.75;;;2.40;;
920;SDS011;447;51.332;6.778;2024-01-15T15:25:52;3.83;;;2.17;;
920;SDS011;447;51.332;6.778;2024-01-15T15:28:20;2.37;;;2.13;;
920;SDS011;447;51.332;6.778;2024-01-15T15:30:46;2.40;;;2.30;;
920;SDS011;447;51.332;6.778;2024-01-15T15:33:12;2.30;;;2.10;;
920;SDS011;447;51.332;6.778;2024-01-15T15:35:39;3.42;;;2.50;;
920;SDS011;447;51.332;6.778;2024-01-15T15:38:05;3.80;;;2.60;;
920;SDS011;447;51.332;6.778;2024-01-15T15:40:33;3.47;;;2.97;;
920;SDS011;447;51.332;6.778;2024-01-15T15:43:00;3.67;;;2.28;;
920;SDS011;447;51.332;6.778;2024-01-15T15:45:33;3.40;;;2.72;;